createdAt,value
2022-07-29T00:00:40.023Z,101158.34
2022-07-29T00:03:07.449Z,101158.92
2022-07-29T00:05:34.721Z,101165.73
2022-07-29T00:08:02.388Z,101166.40
2022-07-29T00:10:30.867Z,101165.49
2022-07-29T00:12:58.528Z,101165.63
2022-07-29T00:15:29.680Z,101164.86
2022-07-29T00:18:01.606Z,101158.55
2022-07-29T00:20:29.053Z,101165.37
2022-07-29T00:22:58.457Z,101166.65
2022-07-29T00:25:25.732Z,101165.80
2022-07-29T00:27:52.932Z,101170.90
2022-07-29T00:30:20.390Z,101170.03
2022-07-29T00:32:47.551Z,101166.59
2022-07-29T00:35:33.610Z,101169.83
2022-07-29T00:38:00.803Z,101177.68
2022-07-29T00:40:29.631Z,101175.98
2022-07-29T00:42:56.805Z,101180.80
2022-07-29T00:45:24.339Z,101180.91
2022-07-29T00:47:51.748Z,101185.06
2022-07-29T00:50:19.093Z,101184.41
2022-07-29T00:52:47.899Z,101181.64
2022-07-29T00:55:17.116Z,101189.38
2022-07-29T00:57:45.718Z,101192.52
2022-07-29T01:00:19.425Z,101188.83
2022-07-29T01:02:50.994Z,101185.12
2022-07-29T01:05:19.455Z,101184.68
2022-07-29T01:07:50.809Z,101185.52
2022-07-29T01:10:18.287Z,101186.13
2022-07-29T01:12:48.784Z,101182.14
2022-07-29T01:15:16.288Z,101184.75
2022-07-29T01:17:52.810Z,101181.92
2022-07-29T01:20:33.623Z,101182.90
2022-07-29T01:23:39.335Z,101179.55
2022-07-29T01:26:25.845Z,101174.58
2022-07-29T01:29:11.465Z,101182.87
2022-07-29T01:31:56.573Z,101184.31
2022-07-29T01:34:59.199Z,101189.81
2022-07-29T01:37:41.110Z,101184.55
2022-07-29T01:40:13.429Z,101183.19
2022-07-29T01:42:44.697Z,101185.38
2022-07-29T01:45:38.581Z,101177.02
2022-07-29T01:48:14.896Z,101175.66
2022-07-29T01:51:00.229Z,101172.27
2022-07-29T01:53:51.840Z,101160.66
2022-07-29T01:56:20.919Z,101155.11
2022-07-29T01:58:48.285Z,101150.06
2022-07-29T02:01:15.737Z,101147.63
2022-07-29T02:03:44.623Z,101146.27
2022-07-29T02:06:12.660Z,101146.98
2022-07-29T02:08:40.593Z,101149.51
2022-07-29T02:11:07.779Z,101145.02
2022-07-29T02:13:37.724Z,101142.82
2022-07-29T02:16:07.016Z,101146.81
2022-07-29T02:18:40.939Z,101144.05
2022-07-29T02:21:15.575Z,101151.20
2022-07-29T02:23:51.309Z,101155.17
2022-07-29T02:26:21.025Z,101160.86
2022-07-29T02:28:49.726Z,101164.17
2022-07-29T02:31:17.170Z,101171.05
2022-07-29T02:33:44.424Z,101174.30
2022-07-29T02:36:13.943Z,101177.02
2022-07-29T02:38:53.303Z,101182.31
2022-07-29T02:41:25.675Z,101178.14
2022-07-29T02:43:57.455Z,101178.52
2022-07-29T02:46:32.456Z,101182.02
2022-07-29T02:49:20.791Z,101179.46
2022-07-29T02:51:52.951Z,101181.13
2022-07-29T02:54:25.521Z,101177.86
2022-07-29T02:56:54.899Z,101183.21
2022-07-29T02:59:24.360Z,101182.55
2022-07-29T03:01:52.414Z,101183.09
2022-07-29T03:04:20.085Z,101180.11
2022-07-29T03:06:47.907Z,101178.64
2022-07-29T03:09:15.269Z,101179.84
2022-07-29T03:11:50.623Z,101183.52
2022-07-29T03:14:21.011Z,101185.95
2022-07-29T03:16:49.115Z,101187.67
2022-07-29T03:19:16.531Z,101195.08
2022-07-29T03:21:43.849Z,101194.63
2022-07-29T03:24:11.383Z,101195.88
2022-07-29T03:26:38.591Z,101192.95
2022-07-29T03:29:08.683Z,101194.76
2022-07-29T03:31:41.014Z,101199.55
2022-07-29T03:34:13.104Z,101193.09
2022-07-29T03:36:41.366Z,101195.77
2022-07-29T03:39:10.368Z,101198.22
2022-07-29T03:41:38.332Z,101200.50
2022-07-29T03:44:07.233Z,101201.52
2022-07-29T03:46:34.483Z,101201.60
2022-07-29T03:49:02.047Z,101206.34
2022-07-29T03:51:33.648Z,101204.70
2022-07-29T03:54:09.510Z,101211.80
2022-07-29T03:56:40.575Z,101214.28
2022-07-29T03:59:08.741Z,101224.36
2022-07-29T04:01:36.513Z,101227.23
2022-07-29T04:04:06.222Z,101230.13
2022-07-29T04:06:42.518Z,101230.94
2022-07-29T04:09:10.110Z,101237.97
2022-07-29T04:12:02.061Z,101236.52
2022-07-29T04:14:26.596Z,101239.60
2022-07-29T04:16:55.560Z,101244.27
2022-07-29T04:19:22.891Z,101245.61
2022-07-29T04:21:50.119Z,101244.59
2022-07-29T04:24:18.047Z,101245.16
2022-07-29T04:26:48.115Z,101244.43
2022-07-29T04:29:16.640Z,101240.89
2022-07-29T04:31:44.043Z,101241.80
2022-07-29T04:34:11.615Z,101245.92
2022-07-29T04:36:39.190Z,101241.10
2022-07-29T04:39:06.899Z,101238.79
2022-07-29T04:41:38.252Z,101238.91
2022-07-29T04:44:07.106Z,101238.55
2022-07-29T04:46:35.361Z,101239.25
2022-07-29T04:49:04.171Z,101243.66
2022-07-29T04:51:31.798Z,101244.22
2022-07-29T04:54:00.576Z,101245.00
2022-07-29T04:56:28.870Z,101244.83
2022-07-29T04:58:56.051Z,101246.71
2022-07-29T05:01:23.725Z,101244.30
2022-07-29T05:03:53.963Z,101250.93
2022-07-29T05:06:24.437Z,101249.77
2022-07-29T05:08:52.174Z,101253.89
2022-07-29T05:11:22.372Z,101251.80
2022-07-29T05:13:51.897Z,101252.52
2022-07-29T05:16:19.096Z,101250.23
2022-07-29T05:18:46.636Z,101255.91
2022-07-29T05:21:13.861Z,101254.73
2022-07-29T05:23:42.622Z,101254.24
2022-07-29T05:26:10.140Z,101254.42
2022-07-29T05:28:37.289Z,101255.77
2022-07-29T05:31:04.559Z,101253.38
2022-07-29T05:33:35.296Z,101254.14
2022-07-29T05:36:06.946Z,101250.27
2022-07-29T05:38:35.121Z,101251.71
2022-07-29T05:41:02.569Z,101252.37
2022-07-29T05:43:31.971Z,101248.87
2022-07-29T05:46:00.394Z,101243.69
2022-07-29T05:48:27.818Z,101240.09
2022-07-29T05:50:55.892Z,101233.11
2022-07-29T05:53:23.553Z,101234.39
2022-07-29T05:55:51.671Z,101229.36
2022-07-29T05:58:19.094Z,101234.77
2022-07-29T06:01:02.285Z,101231.00
2022-07-29T06:03:31.567Z,101232.33
2022-07-29T06:05:58.924Z,101235.01
2022-07-29T06:08:27.686Z,101232.15
2022-07-29T06:10:55.202Z,101237.08
2022-07-29T06:13:23.168Z,101230.80
2022-07-29T06:15:54.688Z,101235.98
2022-07-29T06:18:24.890Z,101233.96
2022-07-29T06:20:55.290Z,101228.45
2022-07-29T06:23:23.193Z,101230.66
2022-07-29T06:25:51.642Z,101229.91
2022-07-29T06:28:20.092Z,101226.64
2022-07-29T06:30:47.371Z,101225.23
2022-07-29T06:33:18.438Z,101227.78
2022-07-29T06:35:53.668Z,101229.54
2022-07-29T06:38:31.084Z,101227.02
2022-07-29T06:41:03.626Z,101232.84
2022-07-29T06:43:55.408Z,101229.98
2022-07-29T06:46:25.247Z,101235.41
2022-07-29T06:48:53.315Z,101236.11
2022-07-29T06:51:23.932Z,101233.20
2022-07-29T06:54:01.621Z,101232.35
2022-07-29T06:56:38.980Z,101234.03
2022-07-29T06:59:08.225Z,101236.02
2022-07-29T07:01:38.190Z,101231.80
2022-07-29T07:04:05.612Z,101234.38
2022-07-29T07:06:32.997Z,101229.56
2022-07-29T07:09:00.121Z,101231.41
2022-07-29T07:11:28.439Z,101233.52
2022-07-29T07:14:02.275Z,101238.45
2022-07-29T07:16:30.820Z,101236.80
2022-07-29T07:19:00.340Z,101235.75
2022-07-29T07:21:28.871Z,101238.86
2022-07-29T07:23:58.114Z,101234.40
2022-07-29T07:26:28.923Z,101237.36
2022-07-29T07:28:56.613Z,101245.46
2022-07-29T07:31:25.965Z,101247.85
2022-07-29T07:33:54.729Z,101252.41
2022-07-29T07:36:22.140Z,101257.09
2022-07-29T07:38:51.468Z,101256.44
2022-07-29T07:41:19.144Z,101257.83
2022-07-29T07:43:46.828Z,101258.92
2022-07-29T07:46:15.852Z,101264.05
2022-07-29T07:48:54.145Z,101265.20
2022-07-29T07:51:21.567Z,101261.57
2022-07-29T07:53:51.661Z,101269.09
2022-07-29T07:56:19.116Z,101270.97
2022-07-29T07:58:46.571Z,101271.02
2022-07-29T08:01:14.253Z,101275.04
2022-07-29T08:03:44.122Z,101278.22
2022-07-29T08:07:31.959Z,101285.02
2022-07-29T08:09:59.420Z,101292.14
2022-07-29T08:12:26.712Z,101293.99
2022-07-29T08:14:55.687Z,101297.98
2022-07-29T08:17:27.912Z,101298.55
2022-07-29T08:19:55.645Z,101302.09
2022-07-29T08:22:23.127Z,101304.73
2022-07-29T08:24:55.704Z,101301.45
2022-07-29T08:27:42.580Z,101303.05
2022-07-29T08:30:11.585Z,101301.87
2022-07-29T08:32:55.972Z,101307.88
2022-07-29T08:35:25.542Z,101309.55
2022-07-29T08:37:53.497Z,101310.46
2022-07-29T08:40:32.137Z,101315.72
2022-07-29T08:43:09.488Z,101314.98
2022-07-29T08:45:47.767Z,101312.23
2022-07-29T08:48:21.191Z,101308.87
2022-07-29T08:50:49.372Z,101309.66
2022-07-29T08:53:19.259Z,101311.45
2022-07-29T08:56:19.354Z,101308.13
2022-07-29T08:58:50.646Z,101305.02
2022-07-29T09:01:23.179Z,101308.03
2022-07-29T09:04:03.434Z,101311.61
2022-07-29T09:06:36.061Z,101315.59
2022-07-29T09:09:03.495Z,101318.51
2022-07-29T09:11:30.822Z,101316.33
2022-07-29T09:13:58.041Z,101312.98
2022-07-29T09:16:50.922Z,101317.94
2022-07-29T09:19:27.417Z,101310.49
2022-07-29T09:22:03.629Z,101313.71
2022-07-29T09:24:35.886Z,101312.04
2022-07-29T09:27:04.001Z,101313.03
2022-07-29T09:29:36.081Z,101305.98
2022-07-29T09:32:08.272Z,101308.48
2022-07-29T09:34:35.625Z,101303.69
2022-07-29T09:37:02.917Z,101304.08
2022-07-29T09:39:37.730Z,101303.42
2022-07-29T09:42:06.497Z,101304.13
2022-07-29T09:44:44.637Z,101300.79
2022-07-29T09:47:16.556Z,101299.69
2022-07-29T09:50:02.339Z,101295.86
2022-07-29T09:52:30.391Z,101290.96
2022-07-29T09:55:08.646Z,101290.05
2022-07-29T09:57:36.087Z,101283.77
2022-07-29T10:00:19.013Z,101286.95
2022-07-29T10:02:49.990Z,101280.41
2022-07-29T10:05:21.814Z,101282.13
2022-07-29T10:07:57.397Z,101279.92
2022-07-29T10:10:25.684Z,101275.51
2022-07-29T10:13:01.809Z,101277.84
2022-07-29T10:15:42.122Z,101273.08
2022-07-29T10:18:09.759Z,101274.64
2022-07-29T10:20:37.567Z,101271.41
2022-07-29T10:23:05.440Z,101271.50
2022-07-29T10:25:38.727Z,101270.02
2022-07-29T10:28:07.437Z,101272.52
2022-07-29T10:30:41.145Z,101272.21
2022-07-29T10:33:38.212Z,101272.84
2022-07-29T10:36:50.317Z,101277.80
2022-07-29T10:39:22.243Z,101277.92
2022-07-29T10:42:06.388Z,101280.70
2022-07-29T10:44:37.340Z,101282.08
2022-07-29T10:47:04.832Z,101280.52
2022-07-29T10:49:32.404Z,101280.88
2022-07-29T10:52:06.589Z,101281.13
2022-07-29T10:54:42.410Z,101281.52
2022-07-29T10:57:18.273Z,101278.11
2022-07-29T10:59:50.349Z,101276.21
2022-07-29T11:05:21.828Z,101269.57
2022-07-29T11:08:19.935Z,101259.14
2022-07-29T11:10:52.676Z,101260.45
2022-07-29T11:13:48.817Z,101255.11
2022-07-29T11:16:16.925Z,101252.74
2022-07-29T11:19:26.715Z,101245.39
2022-07-29T11:21:59.806Z,101244.78
2022-07-29T11:24:35.988Z,101243.50
2022-07-29T11:27:40.717Z,101236.36
2022-07-29T11:30:10.673Z,101231.55
2022-07-29T11:32:41.652Z,101227.40
2022-07-29T11:35:37.568Z,101217.25
2022-07-29T11:38:35.600Z,101210.98
2022-07-29T11:41:27.211Z,101207.95
2022-07-29T11:44:02.209Z,101208.39
2022-07-29T11:46:48.050Z,101208.88
2022-07-29T11:49:33.011Z,101207.49
2022-07-29T11:52:04.210Z,101206.73
2022-07-29T11:54:33.906Z,101207.70
2022-07-29T11:57:19.139Z,101207.91
2022-07-29T11:59:53.301Z,101207.86
2022-07-29T12:05:10.648Z,101203.63
2022-07-29T12:07:39.245Z,101204.20
2022-07-29T12:10:11.453Z,101205.54
2022-07-29T12:12:53.821Z,101204.31
2022-07-29T12:15:22.344Z,101201.81
2022-07-29T12:17:49.860Z,101203.48
2022-07-29T12:20:30.204Z,101200.20
2022-07-29T12:23:04.981Z,101201.38
2022-07-29T12:25:34.808Z,101196.30
2022-07-29T12:28:04.025Z,101193.48
2022-07-29T12:30:41.565Z,101187.23
2022-07-29T12:33:26.397Z,101188.58
2022-07-29T12:36:07.204Z,101184.58
2022-07-29T12:38:36.411Z,101180.64
2022-07-29T12:41:05.973Z,101184.37
2022-07-29T12:43:34.105Z,101185.34
2022-07-29T12:46:16.395Z,101183.95
2022-07-29T12:48:44.493Z,101182.00
2022-07-29T12:51:13.457Z,101178.92
2022-07-29T12:53:40.765Z,101177.26
2022-07-29T12:56:40.558Z,101174.05
2022-07-29T12:59:19.082Z,101173.58
2022-07-29T13:02:00.694Z,101165.39
2022-07-29T13:04:31.091Z,101165.54
2022-07-29T13:07:04.522Z,101163.63
2022-07-29T13:09:46.739Z,101162.69
2022-07-29T13:12:16.449Z,101162.83
2022-07-29T13:14:48.626Z,101157.29
2022-07-29T13:17:24.290Z,101155.11
2022-07-29T13:20:08.867Z,101156.37
2022-07-29T13:22:37.079Z,101155.41
2022-07-29T13:25:09.391Z,101155.30
2022-07-29T13:27:39.153Z,101154.98
2022-07-29T13:30:08.777Z,101150.67
2022-07-29T13:32:37.781Z,101152.25
2022-07-29T13:35:07.419Z,101151.09
2022-07-29T13:37:39.628Z,101146.08
2022-07-29T13:40:10.579Z,101152.40
2022-07-29T13:42:38.159Z,101150.36
2022-07-29T13:45:07.967Z,101156.93
2022-07-29T13:47:37.607Z,101159.20
2022-07-29T13:50:08.415Z,101156.00
2022-07-29T13:52:35.844Z,101155.31
2022-07-29T13:55:04.037Z,101156.02
2022-07-29T13:57:32.003Z,101157.33
2022-07-29T13:59:59.655Z,101156.60
2022-07-29T14:02:27.592Z,101156.07
2022-07-29T14:04:55.313Z,101155.73
2022-07-29T14:07:23.451Z,101155.40
2022-07-29T14:09:51.687Z,101147.97
2022-07-29T14:12:20.422Z,101143.94
2022-07-29T14:14:48.697Z,101142.46
2022-07-29T14:17:17.113Z,101144.48
2022-07-29T14:19:48.421Z,101141.66
2022-07-29T14:22:23.109Z,101138.88
2022-07-29T14:24:53.771Z,101136.64
2022-07-29T14:27:37.333Z,101133.41
2022-07-29T14:30:07.451Z,101136.61
2022-07-29T14:32:36.019Z,101130.26
2022-07-29T14:35:04.612Z,101130.95
2022-07-29T14:37:40.107Z,101129.92
2022-07-29T14:40:09.989Z,101130.58
2022-07-29T14:42:38.817Z,101131.09
2022-07-29T14:45:25.873Z,101125.64
2022-07-29T14:47:57.279Z,101125.33
2022-07-29T14:50:31.337Z,101123.23
2022-07-29T14:53:01.519Z,101124.27
2022-07-29T14:55:28.809Z,101125.07
2022-07-29T14:58:03.251Z,101122.83
2022-07-29T15:00:38.043Z,101119.52
2022-07-29T15:03:06.815Z,101119.30
2022-07-29T15:05:38.847Z,101115.73
2022-07-29T15:08:06.419Z,101116.70
2022-07-29T15:10:34.435Z,101120.20
2022-07-29T15:13:02.841Z,101120.14
2022-07-29T15:15:32.344Z,101117.95
2022-07-29T15:17:59.780Z,101113.34
2022-07-29T15:20:28.611Z,101110.74
2022-07-29T15:22:58.578Z,101114.65
2022-07-29T15:25:28.192Z,101115.67
2022-07-29T15:28:01.470Z,101111.27
2022-07-29T15:30:34.036Z,101114.96
2022-07-29T15:33:03.485Z,101111.73
2022-07-29T15:35:33.248Z,101111.40
2022-07-29T15:38:09.456Z,101109.64
2022-07-29T15:40:39.369Z,101111.73
2022-07-29T15:43:06.968Z,101107.02
2022-07-29T15:45:40.483Z,101109.92
2022-07-29T15:48:09.698Z,101107.23
2022-07-29T15:50:42.462Z,101108.12
2022-07-29T15:53:14.266Z,101106.59
2022-07-29T15:55:44.817Z,101108.73
2022-07-29T15:58:12.308Z,101110.64
2022-07-29T16:00:39.645Z,101107.22
2022-07-29T16:03:08.701Z,101106.08
2022-07-29T16:05:35.906Z,101099.86
2022-07-29T16:08:04.892Z,101098.70
2022-07-29T16:10:32.560Z,101097.64
2022-07-29T16:13:02.206Z,101097.40
2022-07-29T16:15:29.910Z,101096.75
2022-07-29T16:17:57.972Z,101095.63
2022-07-29T16:20:25.600Z,101095.62
2022-07-29T16:22:54.976Z,101097.75
2022-07-29T16:25:33.611Z,101096.57
2022-07-29T16:28:09.950Z,101100.61
2022-07-29T16:30:37.215Z,101101.19
2022-07-29T16:33:08.359Z,101102.83
2022-07-29T16:35:40.538Z,101105.48
2022-07-29T16:38:09.196Z,101109.26
2022-07-29T16:40:36.608Z,101106.27
2022-07-29T16:43:04.508Z,101105.42
2022-07-29T16:45:45.308Z,101111.70
2022-07-29T16:48:15.414Z,101113.09
2022-07-29T16:50:46.470Z,101116.31
2022-07-29T16:53:13.730Z,101113.44
2022-07-29T16:55:42.478Z,101115.49
2022-07-29T16:58:10.852Z,101115.33
2022-07-29T17:00:38.543Z,101114.05
2022-07-29T17:03:06.284Z,101115.97
2022-07-29T17:05:52.070Z,101117.56
2022-07-29T17:08:21.495Z,101118.38
2022-07-29T17:10:52.319Z,101116.24
2022-07-29T17:13:19.968Z,101114.77
2022-07-29T17:15:47.460Z,101111.05
2022-07-29T17:18:16.825Z,101109.79
2022-07-29T17:20:58.833Z,101109.79
2022-07-29T17:23:26.086Z,101110.05
2022-07-29T17:25:53.313Z,101108.45
2022-07-29T17:28:20.535Z,101102.66
2022-07-29T17:30:47.862Z,101101.02
2022-07-29T17:33:18.460Z,101102.77
2022-07-29T17:36:04.313Z,101103.83
2022-07-29T17:38:31.711Z,101103.80
2022-07-29T17:40:59.212Z,101104.80
2022-07-29T17:43:27.148Z,101106.91
2022-07-29T17:45:57.929Z,101107.91
2022-07-29T17:48:26.769Z,101108.12
2022-07-29T17:50:55.960Z,101113.48
2022-07-29T17:53:23.300Z,101115.94
2022-07-29T17:55:51.245Z,101114.95
2022-07-29T17:58:18.676Z,101115.50
2022-07-29T18:00:47.149Z,101119.70
2022-07-29T18:03:15.137Z,101119.41
2022-07-29T18:05:42.965Z,101124.39
2022-07-29T18:08:11.185Z,101127.91
2022-07-29T18:10:41.618Z,101126.42
2022-07-29T18:13:12.945Z,101129.11
2022-07-29T18:15:41.128Z,101127.52
2022-07-29T18:18:08.636Z,101132.23
2022-07-29T18:20:37.352Z,101132.46
2022-07-29T18:23:17.095Z,101134.20
2022-07-29T18:25:44.994Z,101132.73
2022-07-29T18:28:12.180Z,101135.45
2022-07-29T18:30:41.707Z,101140.61
2022-07-29T18:33:22.850Z,101143.43
2022-07-29T18:35:52.589Z,101141.30
2022-07-29T18:38:39.845Z,101143.21
2022-07-29T18:41:07.818Z,101143.03
2022-07-29T18:43:35.189Z,101143.89
2022-07-29T18:46:02.667Z,101142.91
2022-07-29T18:48:33.234Z,101144.77
2022-07-29T18:51:01.970Z,101138.11
2022-07-29T18:53:37.092Z,101138.52
2022-07-29T18:56:05.084Z,101140.30
2022-07-29T18:59:05.076Z,101139.96
2022-07-29T19:01:33.308Z,101135.34
2022-07-29T19:04:05.601Z,101133.77
2022-07-29T19:06:58.392Z,101132.77
2022-07-29T19:09:25.892Z,101135.14
2022-07-29T19:11:57.969Z,101130.27
2022-07-29T19:14:26.943Z,101128.70
2022-07-29T19:16:54.216Z,101125.83
2022-07-29T19:19:26.246Z,101122.82
2022-07-29T19:21:54.582Z,101127.20
2022-07-29T19:24:22.117Z,101128.09
2022-07-29T19:26:49.413Z,101125.56
2022-07-29T19:29:16.745Z,101121.19
2022-07-29T19:31:44.305Z,101122.98
2022-07-29T19:34:13.172Z,101121.85
2022-07-29T19:36:42.045Z,101119.97
2022-07-29T19:39:09.536Z,101123.45
2022-07-29T19:41:38.213Z,101123.04
2022-07-29T19:44:05.570Z,101126.92
2022-07-29T19:46:33.769Z,101123.71
2022-07-29T19:49:01.995Z,101122.83
2022-07-29T19:51:29.640Z,101119.06
2022-07-29T19:53:56.850Z,101118.48
2022-07-29T19:56:26.904Z,101121.70
2022-07-29T19:58:55.942Z,101118.65
2022-07-29T20:01:25.237Z,101121.97
2022-07-29T20:03:54.232Z,101123.33
2022-07-29T20:06:22.899Z,101124.63
2022-07-29T20:09:00.657Z,101126.81
2022-07-29T20:11:32.571Z,101126.89
2022-07-29T20:13:59.700Z,101129.16
2022-07-29T20:16:26.955Z,101125.63
2022-07-29T20:18:54.230Z,101129.79
2022-07-29T20:21:25.789Z,101130.55
2022-07-29T20:25:13.869Z,101126.71
2022-07-29T20:27:41.303Z,101128.08
2022-07-29T20:30:09.187Z,101129.74
2022-07-29T20:32:39.432Z,101133.63
2022-07-29T20:35:07.798Z,101132.17
2022-07-29T20:37:51.409Z,101133.68
2022-07-29T20:40:27.496Z,101140.21
2022-07-29T20:42:55.317Z,101145.41
2022-07-29T20:45:23.757Z,101141.63
2022-07-29T20:47:52.238Z,101141.70
2022-07-29T20:50:20.761Z,101138.38
2022-07-29T20:52:53.177Z,101140.89
2022-07-29T20:55:21.274Z,101143.11
2022-07-29T20:57:48.680Z,101139.59
2022-07-29T21:00:16.384Z,101144.48
2022-07-29T21:02:44.400Z,101143.52
2022-07-29T21:05:11.866Z,101145.29
2022-07-29T21:07:39.158Z,101150.84
2022-07-29T21:10:06.900Z,101149.40
2022-07-29T21:12:37.873Z,101155.89
2022-07-29T21:15:13.734Z,101154.54
2022-07-29T21:17:46.582Z,101155.77
2022-07-29T21:20:17.570Z,101158.23
2022-07-29T21:22:47.699Z,101158.02
2022-07-29T21:25:14.920Z,101159.29
2022-07-29T21:28:02.406Z,101160.41
2022-07-29T21:30:31.630Z,101166.48
2022-07-29T21:32:59.708Z,101162.52
2022-07-29T21:35:35.842Z,101163.62
2022-07-29T21:38:18.802Z,101158.63
2022-07-29T21:40:46.930Z,101163.32
2022-07-29T21:43:14.109Z,101165.25
2022-07-29T21:45:41.394Z,101163.88
2022-07-29T21:48:11.491Z,101163.95
2022-07-29T21:50:38.921Z,101160.08
2022-07-29T21:53:13.885Z,101159.63
2022-07-29T21:55:43.884Z,101164.11
2022-07-29T21:58:15.765Z,101162.17
2022-07-29T22:00:43.020Z,101162.41
2022-07-29T22:03:10.562Z,101166.98
2022-07-29T22:05:37.754Z,101164.56
2022-07-29T22:08:05.199Z,101166.30
2022-07-29T22:10:36.294Z,101164.25
2022-07-29T22:13:03.994Z,101162.27
2022-07-29T22:15:36.519Z,101165.98
2022-07-29T22:18:11.001Z,101162.77
2022-07-29T22:20:38.718Z,101163.83
2022-07-29T22:23:10.075Z,101164.42
2022-07-29T22:25:41.037Z,101162.81
2022-07-29T22:28:08.626Z,101165.41
2022-07-29T22:30:36.290Z,101163.70
2022-07-29T22:33:04.264Z,101160.22
2022-07-29T22:35:32.705Z,101160.38
2022-07-29T22:38:00.038Z,101160.20
2022-07-29T22:40:30.522Z,101156.36
2022-07-29T22:42:58.463Z,101157.79
2022-07-29T22:45:28.937Z,101161.52
2022-07-29T22:47:59.201Z,101165.15
2022-07-29T22:50:27.024Z,101166.30
2022-07-29T22:52:54.179Z,101161.34
2022-07-29T22:55:21.672Z,101160.90
2022-07-29T22:57:49.019Z,101155.55
2022-07-29T23:00:16.428Z,101157.13
2022-07-29T23:02:43.669Z,101155.75
2022-07-29T23:05:16.093Z,101156.04
2022-07-29T23:07:44.205Z,101159.36
2022-07-29T23:10:13.855Z,101160.00
2022-07-29T23:12:43.603Z,101159.91
2022-07-29T23:15:14.222Z,101156.23
2022-07-29T23:17:42.433Z,101158.41
2022-07-29T23:20:10.070Z,101162.69
2022-07-29T23:22:39.058Z,101161.92
2022-07-29T23:25:07.050Z,101161.23
2022-07-29T23:27:34.224Z,101163.96
2022-07-29T23:30:01.454Z,101160.41
2022-07-29T23:32:28.690Z,101160.58
2022-07-29T23:34:56.580Z,101163.48
2022-07-29T23:37:26.598Z,101163.27
2022-07-29T23:39:54.492Z,101159.77
2022-07-29T23:42:21.859Z,101162.14
2022-07-29T23:44:50.100Z,101160.45
2022-07-29T23:47:19.376Z,101158.14
2022-07-29T23:49:50.044Z,101159.55
2022-07-29T23:52:17.658Z,101154.89
2022-07-29T23:54:44.843Z,101154.39
2022-07-29T23:57:12.153Z,101151.95
2022-07-29T23:59:39.598Z,101156.96
